Home > Products > Valid Products > TAF

000
FTUS43 KMPX 291100
TAFRWF
TAF
KRWF 291130Z 2912/3012 30007KT P6SM SKC
     FM291500 32008KT P6SM SCT050
     FM300100 30003KT P6SM SKC=



000
FTUS43 KMPX 291100
TAFSTC
TAF
KSTC 291130Z 2912/3012 32004KT P6SM FEW080
     FM291500 32010KT P6SM SCT050
     FM300100 31003KT P6SM SKC=



000
FTUS43 KMPX 291100
TAFAXN
TAF
KAXN 291130Z 2912/3012 30005KT P6SM SKC
     FM291500 32008KT P6SM SCT050
     FM300100 31003KT P6SM SKC=



000
FTUS43 KMPX 291100
TAFMSP
TAF
KMSP 291130Z 2912/3018 31006KT P6SM SCT060
     FM291900 31011KT P6SM SCT050 BKN080
     FM300100 30004KT P6SM SKC
     FM301400 30008KT P6SM FEW050=



000
FTUS43 KMPX 291100
TAFEAU
TAF
KEAU 291130Z 2912/3012 28006KT P6SM SCT060
     FM291500 31008KT P6SM BKN050
     FM291800 30011KT P6SM VCSH BKN050 BKN100
     FM300100 30004KT P6SM SCT060 BKN100=



000
FTUS43 KMPX 290800 AAA
TAFMSP
TAF AMD
KMSP 290846Z 2909/3012 30005KT P6SM SKC
     FM291500 31006KT P6SM SCT060
     FM291900 31011KT P6SM SCT050 BKN080
     FM300100 30004KT P6SM SKC=



000
FTUS43 KMPX 290500
TAFAXN
TAF
KAXN 290527Z 2906/3006 31004KT P6SM SKC
     FM291500 32008KT P6SM SCT050
     FM300100 31003KT P6SM SKC=



000
FTUS43 KMPX 290500
TAFMSP
TAF
KMSP 290527Z 2906/3012 30004KT P6SM FEW070
     FM291500 31006KT P6SM SCT050
     FM291900 31011KT P6SM SCT050 BKN080
     FM300100 30004KT P6SM SKC=



000
FTUS43 KMPX 290500
TAFRWF
TAF
KRWF 290527Z 2906/3006 31004KT P6SM SKC
     FM291500 32008KT P6SM SCT050
     FM300100 30003KT P6SM SKC=



000
FTUS43 KMPX 290500
TAFSTC
TAF
KSTC 290527Z 2906/3006 31003KT P6SM FEW080
     FM291500 32010KT P6SM SCT050
     FM300100 31003KT P6SM SKC=



000
FTUS43 KMPX 290500
TAFEAU
TAF
KEAU 290527Z 2906/3006 28003KT P6SM SCT060
      TEMPO 2906/2910 BKN060
     FM291500 31008KT P6SM BKN050
     FM291800 31011KT P6SM VCSH BKN050
     FM300100 30004KT P6SM SCT060=



000
FTUS43 KMPX 290200 AAA
TAFMSP
TAF AMD
KMSP 290254Z 2903/3006 30004KT P6SM FEW070
     FM291500 31006KT P6SM SCT050
     FM291900 31011KT P6SM SCT050 BKN080
     FM300100 30004KT P6SM SKC=



000
FTUS43 KMPX 282300
TAFEAU
TAF
KEAU 282338Z 2900/2924 33008KT P6SM FEW060
     FM290200 32003KT P6SM SCT060
      TEMPO 2903/2907 BKN060
     FM291500 31010KT P6SM BKN050=



000
FTUS43 KMPX 282300
TAFSTC
TAF
KSTC 282338Z 2900/2924 32008KT P6SM SCT060 BKN080
     FM290130 31002KT P6SM FEW080
     FM291500 32009KT P6SM SCT050=



000
FTUS43 KMPX 282300
TAFRWF
TAF
KRWF 282338Z 2900/2924 34009KT P6SM SCT060
     FM290130 32004KT P6SM FEW050
     FM291500 32007KT P6SM SCT050=



000
FTUS43 KMPX 282300
TAFMSP
TAF
KMSP 282338Z 2900/3006 31008KT P6SM SCT070
     FM290200 30004KT P6SM SCT070
     FM291500 31006KT P6SM SCT050
     FM291900 31011KT P6SM SCT050 BKN080
     FM300100 30004KT P6SM SKC=



000
FTUS43 KMPX 282300
TAFAXN
TAF
KAXN 282338Z 2900/2924 33010KT P6SM SCT050
     FM290130 32004KT P6SM SKC
     FM291500 33008KT P6SM SCT050=



000
FTUS43 KMPX 282000 AAA
TAFMSP
TAF AMD
KMSP 282037Z 2821/2924 35010KT P6SM SCT050 SCT080
     FM290200 33004KT P6SM SCT070
     FM291500 31006KT P6SM SCT050
     FM291900 30007KT P6SM SCT050 BKN080=



000
FTUS43 KMPX 281700
TAFMSP
TAF
KMSP 281720Z 2818/2924 33008KT P6SM SCT045 BKN070
     FM282000 33010KT P6SM SCT050 SCT070
     FM290200 31004KT P6SM SCT070
     FM291500 31006KT P6SM SCT050
     FM291900 30007KT P6SM SCT050 BKN080=



000
FTUS43 KMPX 281700
TAFAXN
TAF
KAXN 281720Z 2818/2918 33010KT P6SM SCT040 SCT080
     FM290100 32004KT P6SM SKC
     FM291500 33008KT P6SM SCT040=



000
FTUS43 KMPX 281700
TAFEAU
TAF
KEAU 281720Z 2818/2918 34006KT P6SM SCT040 BKN070
     FM290200 32003KT P6SM SCT060
     FM291000 VRB02KT P6SM FEW060
     FM291400 31010KT P6SM SCT040=



000
FTUS43 KMPX 281700
TAFSTC
TAF
KSTC 281720Z 2818/2918 32007KT P6SM SCT045 BKN070
     FM282000 33008KT P6SM SCT050 SCT080
     FM290100 32002KT P6SM FEW050
     FM291500 31007KT P6SM SCT040=



000
FTUS43 KMPX 281700
TAFRWF
TAF
KRWF 281720Z 2818/2918 33006KT P6SM FEW025 BKN070
     FM281900 34008KT P6SM VCSH SCT030 BKN070
     FM290100 31004KT P6SM FEW050
     FM291500 31006KT P6SM SCT050=



000
FTUS43 KMPX 281400 AAA
TAFMSP
TAF AMD
KMSP 281448Z 2815/2918 34008KT P6SM OVC070
     FM281900 33009KT P6SM SCT070
     FM290100 31005KT P6SM SCT250=



000
FTUS43 KMPX 281400 AAA
TAFRWF
TAF AMD
KRWF 281422Z 2814/2912 34005KT P6SM VCSH BKN008 OVC050
     FM281500 33008KT P6SM FEW025 OVC060
     FM290100 31004KT P6SM SKC=



000
FTUS43 KMPX 281100
TAFAXN
TAF
KAXN 281130Z 2812/2912 33009KT P6SM OVC060
     FM282100 33010KT P6SM SCT040 BKN100
     FM290100 32004KT P6SM SKC=



000
FTUS43 KMPX 281100
TAFRWF
TAF
KRWF 281130Z 2812/2912 35005KT P6SM VCSH SCT025 OVC035
     FM281500 33008KT P6SM BKN050
     FM290100 31004KT P6SM SKC=



000
FTUS43 KMPX 281100
TAFSTC
TAF
KSTC 281130Z 2812/2912 34004KT P6SM OVC060
     FM281900 33008KT P6SM SCT040 BKN100
     FM290100 32002KT P6SM SKC=



000
FTUS43 KMPX 281100
TAFEAU
TAF
KEAU 281130Z 2812/2912 34006KT P6SM BKN060
     FM282100 33009KT P6SM SCT045
     FM290100 32003KT P6SM SCT250=



000
FTUS43 KMPX 281100
TAFMSP
TAF
KMSP 281130Z 2812/2918 33006KT P6SM OVC060
     FM281500 33009KT P6SM BKN060
     FM282000 33009KT P6SM SCT060
     FM290100 31005KT P6SM SCT250=



000
FTUS43 KMPX 280800 AAA
TAFMSP
TAF AMD
KMSP 280852Z 2809/2912 33006KT P6SM BKN060
     FM281500 33009KT P6SM SCT050
     FM290100 32006KT P6SM SKC=



000
FTUS43 KMPX 280800 AAA
TAFRWF
TAF AMD
KRWF 280839Z 2809/2906 35005KT P6SM VCSH SCT025 OVC035
     FM281500 33008KT P6SM SCT045
     FM290100 31004KT P6SM SKC=



000
FTUS43 KMPX 280800 AAA
TAFSTC
TAF AMD
KSTC 280838Z 2809/2906 34004KT P6SM OVC060
     FM281500 33008KT P6SM SCT040
     FM290100 32004KT P6SM SKC=



000
FTUS43 KMPX 280700 AAA
TAFAXN
TAF AMD
KAXN 280757Z 2808/2906 34005KT P6SM OVC060
     FM281600 33010KT P6SM SCT040
     FM290100 33004KT P6SM SKC=



000
FTUS43 KMPX 280500
TAFEAU
TAF
KEAU 280527Z 2806/2906 35006KT P6SM SKC
     FM280900 35002KT 4SM BR SCT050
     FM281200 34005KT P6SM FEW040
     FM281500 33009KT P6SM SCT045
     FM290100 32003KT P6SM SKC=



000
FTUS43 KMPX 280500
TAFMSP
TAF
KMSP 280527Z 2806/2912 01007KT P6SM SCT026 BKN045 OVC060
     FM280900 36006KT P6SM BKN050
     FM281500 33009KT P6SM SCT050
     FM290100 32006KT P6SM SKC=



000
FTUS43 KMPX 280500
TAFSTC
TAF
KSTC 280527Z 2806/2906 32003KT P6SM SCT035 OVC060
     FM280900 35004KT P6SM SCT050
     FM281500 33008KT P6SM SCT040
     FM290100 32004KT P6SM SKC=



000
FTUS43 KMPX 280500
TAFAXN
TAF
KAXN 280527Z 2806/2906 01005KT P6SM BKN040 OVC050
     FM280900 34006KT P6SM SCT045
     FM281600 33010KT P6SM SCT040
     FM290100 33004KT P6SM SKC=



000
FTUS43 KMPX 280500
TAFRWF
TAF
KRWF 280527Z 2806/2906 32011KT P6SM VCSH SCT020 OVC040
     FM280800 33007KT P6SM SCT025 BKN045
     FM281000 32005KT P6SM SCT050
     FM281500 33008KT P6SM SCT045
     FM290100 31004KT P6SM SKC=



000
FTUS43 KMPX 280200 AAA
TAFMSP
TAF AMD
KMSP 280242Z 2803/2906 03009KT P6SM SCT026 BKN045
      TEMPO 2803/2806 BKN026
     FM280600 36006KT P6SM SCT030 BKN060
     FM281500 33009KT P6SM SCT050=



000
FTUS43 KMPX 280200 AAA
TAFAXN
TAF AMD
KAXN 280219Z 2802/2824 33011KT P6SM VCSH BKN018 OVC030
      TEMPO 2803/2806 SCT018 BKN030
     FM280600 35007KT P6SM SCT030 BKN045
     FM280900 34005KT P6SM SCT050
     FM281600 33008KT P6SM SCT040=



000
FTUS43 KMPX 272300
TAFAXN
TAF
KAXN 272331Z 2800/2824 33012G20KT P6SM VCSH SCT025 BKN035
     FM280100 35009KT P6SM SCT030 BKN045
     FM280500 34005KT P6SM SCT050
     FM281600 33008KT P6SM SCT040=



000
FTUS43 KMPX 272300
TAFRWF
TAF
KRWF 272331Z 2800/2824 32013G22KT P6SM VCSH SCT030 BKN050
     FM280200 33010KT P6SM FEW025 BKN045
     FM280600 31005KT P6SM FEW040
     FM281500 33008KT P6SM SCT045=



000
FTUS43 KMPX 272300
TAFSTC
TAF
KSTC 272331Z 2800/2824 02010KT P6SM SCT030 BKN050
     FM280500 34004KT P6SM SCT050
     FM281500 33008KT P6SM SCT040=



000
FTUS43 KMPX 272300
TAFEAU
TAF
KEAU 272331Z 2800/2824 36011G17KT P6SM SCT020 BKN035
     FM280200 01005KT P6SM SCT025 BKN045
     FM281000 35002KT 4SM BR SCT050
     FM281300 34005KT P6SM FEW040
     FM281500 33009KT P6SM SCT045=



000
FTUS43 KMPX 272300
TAFMSP
TAF
KMSP 272331Z 2800/2906 35014G21KT P6SM SCT035 BKN070
     FM280200 36007KT P6SM SCT045 BKN080
     FM281500 33009KT P6SM SCT050=



000
FTUS43 KMPX 272100 AAA
TAFAXN
TAF AMD
KAXN 272102Z 2721/2818 34014G22KT P6SM VCSH SCT020 BKN035
     FM280100 35009KT P6SM SCT030 BKN060
     FM280500 34005KT P6SM SCT050
     FM281600 33008KT P6SM SCT040=



000
FTUS43 KMPX 272000 AAA
TAFMSP
TAF AMD
KMSP 272049Z 2721/2824 33013G21KT P6SM -SHRA SCT030 BKN060
     FM280200 34005KT P6SM SCT040 BKN080
     FM281500 33009KT P6SM SCT050=



000
FTUS43 KMPX 271700
TAFMSP
TAF
KMSP 271720Z 2718/2824 32017G27KT P6SM -SHRA SCT025 BKN040
     FM272200 33012KT P6SM VCSH SCT025 BKN040
     FM280200 34005KT P6SM SCT050
     FM281500 33009KT P6SM SCT050=



000
FTUS43 KMPX 271700
TAFSTC
TAF
KSTC 271720Z 2718/2818 34015G25KT P6SM VCSH SCT025 BKN035
      TEMPO 2718/2721 -SHRA BKN025 OVC040
     FM272300 35009KT P6SM SCT025 BKN045
     FM280500 33004KT P6SM FEW040
     FM281500 33008KT P6SM SCT040=



000
FTUS43 KMPX 271700
TAFEAU
TAF
KEAU 271720Z 2718/2818 32014G24KT P6SM -SHRA SCT025 BKN045
     FM272000 35012KT P6SM -SHRA SCT030 BKN045
     FM280000 36007KT P6SM VCSH SCT035 BKN050
     FM280300 33003KT P6SM FEW040
     FM281500 33008KT P6SM SCT040=



000
FTUS43 KMPX 271700
TAFAXN
TAF
KAXN 271720Z 2718/2818 32017G27KT P6SM VCSH SCT015 OVC030
     FM272000 33014G24KT P6SM VCSH SCT015 BKN025 OVC050
     FM280100 35009KT P6SM BKN050
     FM280500 34005KT P6SM SKC
     FM281600 33008KT P6SM SCT040=



000
FTUS43 KMPX 271700
TAFRWF
TAF
KRWF 271720Z 2718/2818 32017G30KT P6SM BKN025 OVC035
     FM272000 33013G19KT P6SM VCSH SCT020 BKN035 OVC050
     FM280000 34011KT P6SM FEW025 BKN040
     FM280600 31005KT P6SM FEW040=



000
FTUS43 KMPX 271500 AAA
TAFSTC
TAF AMD
KSTC 271536Z 2716/2812 32015G25KT P6SM VCSH SCT025 OVC035
     FM271800 34015G25KT P6SM -SHRA SCT025 BKN035
     FM280000 35014KT P6SM BKN045
     FM280200 33004KT P6SM SKC=



000
FTUS43 KMPX 271500 AAA
TAFAXN
TAF AMD
KAXN 271535Z 2716/2812 32018G30KT P6SM VCSH SCT015 OVC030
     FM272000 33014G25KT P6SM VCSH SCT015 BKN025 OVC050
     FM280100 35014KT P6SM BKN050
     FM280400 34005KT P6SM SKC=



000
FTUS43 KMPX 271500 AAA
TAFRWF
TAF AMD
KRWF 271534Z 2716/2812 32017G30KT P6SM BKN025 OVC035
     FM272000 33013G19KT P6SM VCSH SCT020 BKN035 OVC050
     FM280000 34011KT P6SM BKN050
     FM280300 31005KT P6SM SCT250=



000
FTUS43 KMPX 271500 CCA
TAFMSP
TAF COR
KMSP 271503Z 2715/2818 30015G25KT P6SM SCT020 BKN035
     FM271700 32017G27KT P6SM VCSH SCT020 BKN035
      TEMPO 2718/2721 -SHRA BKN025 OVC040
     FM272200 33014G20KT P6SM VCSH SCT025 BKN040
     FM280200 35004KT P6SM SCT050=



000
FTUS43 KMPX 271500 AAB
TAFMSP
TAF AMD
KMSP 271501Z 2715/2818 30015G25KT P6SM BKN030 BKN050
     FM271700 32017G27KT P6SM VCSH SCT020 BKN035
      TEMPO 2718/2721 -SHRA BKN025 OVC040
     FM272200 33014G20KT P6SM VCSH SCT025 BKN040
     FM280200 35004KT P6SM SCT050=



000
FTUS43 KMPX 271300 AAA
TAFMSP
TAF AMD
KMSP 271331Z 2714/2818 29014G25KT P6SM BKN030 BKN050
     FM271600 32017G27KT P6SM VCSH BKN025 OVC035
     FM280000 34014KT P6SM VCSH SCT035 BKN050
     FM280300 35004KT P6SM SCT050=



000
FTUS43 KMPX 271100
TAFEAU
TAF
KEAU 271136Z 2712/2812 26006KT P6SM SCT090
     FM271400 29012KT P6SM SCT045 OVC070
     FM271700 32013G20KT P6SM -SHRA BKN025 OVC045
     FM272000 35014G22KT P6SM -SHRA SCT030 OVC045
     FM280000 36008KT P6SM VCSH SCT035 BKN050
     FM280300 33003KT P6SM SKC=



000
FTUS43 KMPX 271100
TAFRWF
TAF
KRWF 271136Z 2712/2812 29012G16KT P6SM BKN025 OVC035
     FM271500 32015G22KT P6SM VCSH BKN015 OVC035
     FM272000 33013G19KT P6SM VCSH SCT020 BKN035 OVC050
     FM280000 34011KT P6SM BKN050
     FM280300 31005KT P6SM SCT250=



000
FTUS43 KMPX 271100
TAFSTC
TAF
KSTC 271136Z 2712/2812 29013G18KT P6SM SCT025 BKN035 OVC060
     FM271400 32014G21KT P6SM VCSH BKN018 OVC027
     FM271800 34015G22KT P6SM -SHRA SCT025 BKN035
     FM280000 35014KT P6SM BKN045
     FM280200 33004KT P6SM SKC=



000
FTUS43 KMPX 271100
TAFAXN
TAF
KAXN 271136Z 2712/2812 32017G25KT P6SM VCSH BKN015 OVC025
     FM272000 33014G22KT P6SM VCSH SCT015 BKN025 OVC050
     FM280100 35014KT P6SM BKN050
     FM280400 34005KT P6SM SKC=



000
FTUS43 KMPX 271100
TAFMSP
TAF
KMSP 271136Z 2712/2818 29013G20KT P6SM SCT035 BKN060
     FM271600 32017G26KT P6SM VCSH BKN025 OVC035
     FM280000 34014KT P6SM VCSH SCT035 BKN050
     FM280300 35004KT P6SM SCT050=



000
FTUS43 KMPX 270800 AAA
TAFMSP
TAF AMD
KMSP 270847Z 2709/2812 27010KT P6SM FEW050 SCT090
     FM271100 29013G20KT P6SM SCT035 BKN060
     FM271600 32015G22KT P6SM VCSH BKN035 OVC050
     FM271900 34017G25KT P6SM -SHRA SCT030 BKN045
     FM280000 34014KT P6SM VCSH SCT035 BKN050
     FM280300 35004KT P6SM SCT050=



000
FTUS43 KMPX 270500
TAFRWF
TAF
KRWF 270520Z 2706/2806 27008KT P6SM SCT090
     FM271000 29012G16KT P6SM SCT050 BKN090
     FM271500 32015G22KT P6SM VCSH BKN035 OVC060
     FM271900 33014G20KT P6SM -SHRA SCT030 BKN040
     FM280000 34011KT P6SM VCSH BKN045=



000
FTUS43 KMPX 270500
TAFMSP
TAF
KMSP 270520Z 2706/2812 25007KT P6SM FEW050 SCT090
     FM271100 29013G20KT P6SM SCT035 BKN060
     FM271600 32015G22KT P6SM VCSH BKN035 OVC050
     FM271900 34017G25KT P6SM -SHRA SCT030 BKN045
     FM280000 34014KT P6SM VCSH SCT035 BKN050
     FM280300 35004KT P6SM SCT050=



000
FTUS43 KMPX 270500
TAFAXN
TAF
KAXN 270520Z 2706/2806 30012KT P6SM SCT040 BKN090
     FM270900 30013G20KT P6SM BKN035 OVC060
     FM271200 32014G22KT P6SM VCSH BKN020 OVC030
     FM271600 34015G22KT P6SM -SHRA SCT020 BKN035
     FM272200 35014KT P6SM VCSH BKN040=



000
FTUS43 KMPX 270500
TAFSTC
TAF
KSTC 270520Z 2706/2806 28006KT P6SM SCT080
     FM270900 29010KT P6SM BKN045 OVC080
     FM271400 32013G21KT P6SM VCSH BKN020 OVC030
     FM271800 34015G22KT P6SM -SHRA SCT025 BKN040
     FM280000 35014KT P6SM VCSH BKN045=



000
FTUS43 KMPX 270500
TAFEAU
TAF
KEAU 270520Z 2706/2806 25004KT 6SM BR SCT050
      TEMPO 2706/2709 2SM BR FEW005
     FM271000 26005KT P6SM SCT090
     FM271400 29012KT P6SM SCT045 OVC070
     FM271700 32013G20KT P6SM -SHRA BKN030 OVC045
     FM272000 35014G22KT P6SM -SHRA SCT030 OVC045
     FM280000 36008KT P6SM VCSH SCT035 BKN050=



000
FTUS43 KMPX 270200 AAA
TAFEAU
TAF AMD
KEAU 270258Z 2703/2724 22007KT P6SM SCT050 BKN090
      TEMPO 2703/2704 27020G35KT 3SM TSRA OVC040CB
     FM270500 23004KT P6SM SCT050 SCT090
     FM271000 27008KT P6SM SCT025 BKN050
     FM271500 31013G20KT P6SM -SHRA SCT025 OVC040
     FM271800 34014G22KT P6SM -SHRA SCT030 OVC045=



000
FTUS43 KMPX 270200 AAA
TAFMSP
TAF AMD
KMSP 270256Z 2703/2806 26006KT P6SM FEW050 SCT090
     FM270900 29010KT P6SM SCT020 BKN035
     FM271400 31014G22KT P6SM SCT025 OVC040
     FM271800 32017G25KT P6SM -SHRA SCT030 OVC045
     FM280000 34013KT P6SM VCSH SCT035 BKN050=



000
FTUS43 KMPX 262300
TAFRWF
TAF
KRWF 262331Z 2700/2724 27012G18KT P6SM SCT040
     FM270200 28009KT P6SM SCT060
     FM271200 31015G24KT P6SM SCT025 OVC035
     FM271800 33014G22KT P6SM -SHRA SCT030 BKN045=



000
FTUS43 KMPX 262300
TAFEAU
TAF
KEAU 262331Z 2700/2724 24006KT P6SM FEW050 SCT250
     FM270300 23004KT P6SM SCT050 SCT090
     FM271000 27008KT P6SM SCT025 BKN050
     FM271500 31013G20KT P6SM -SHRA SCT025 OVC040
     FM271800 34014G22KT P6SM -SHRA SCT030 OVC045=



000
FTUS43 KMPX 262300
TAFMSP
TAF
KMSP 262331Z 2700/2806 27010KT P6SM VCSH SCT050 BKN090
     FM270200 28008KT P6SM FEW050 SCT090
     FM271200 29013G20KT P6SM SCT020 OVC035
     FM271800 32017G25KT P6SM -SHRA SCT030 OVC045
     FM280000 34013KT P6SM VCSH SCT035 BKN050=



000
FTUS43 KMPX 262300
TAFSTC
TAF
KSTC 262331Z 2700/2724 26012G18KT P6SM SCT050
     FM270200 27010KT P6SM SCT080
     FM270900 29010KT P6SM BKN025 OVC040
     FM271400 32014G24KT P6SM -SHRA SCT015 OVC025
     FM272000 34013G20KT P6SM VCSH SCT025 BKN040=



000
FTUS43 KMPX 262300
TAFAXN
TAF
KAXN 262331Z 2700/2724 29013G23KT P6SM SCT080
     FM270200 30011KT P6SM SCT040 BKN070
     FM270700 30013KT P6SM BKN025 OVC040
     FM271200 32015G25KT P6SM -SHRA BKN015 OVC030
     FM271800 34015G22KT P6SM VCSH SCT020 BKN035=



000
FTUS43 KMPX 262000 AAA
TAFMSP
TAF AMD
KMSP 262049Z 2621/2724 24011KT P6SM SCT025 SCT250
     FM270000 26008KT P6SM VCSH SCT050 BKN090
     FM270300 28010KT P6SM SCT050 BKN100
     FM271200 29012G18KT P6SM BKN020 OVC035
     FM271800 32015G25KT P6SM -SHRA SCT020 OVC035=



000
FTUS43 KMPX 261700
TAFAXN
TAF
KAXN 261720Z 2618/2718 24011G20KT P6SM SCT025 SCT040
     FM262000 27013G20KT P6SM SCT025 BKN040
     FM262200 30013G23KT P6SM SCT025 SCT040
     FM270700 30013KT P6SM BKN025
     FM271200 32015G25KT P6SM -SHRA BKN015 OVC030=



000
FTUS43 KMPX 261700
TAFRWF
TAF
KRWF 261720Z 2618/2718 22005KT P6SM SCT025 BKN200
     FM262100 26009KT P6SM SCT040 SCT100
     FM270000 30009KT P6SM SCT040 SCT100
     FM271300 31014G24KT P6SM BKN025 BKN040=



000
FTUS43 KMPX 261700
TAFSTC
TAF
KSTC 261720Z 2618/2718 23011KT P6SM SCT025 SCT250
     FM262000 25011KT P6SM SCT040 SCT250
     FM262300 26006KT P6SM -SHRA SCT040 BKN080
     FM270100 27007KT P6SM SCT050
     FM270800 30010KT P6SM BKN025 OVC040
     FM271300 32014G24KT P6SM -SHRA SCT015 OVC025=



000
FTUS43 KMPX 261700
TAFEAU
TAF
KEAU 261720Z 2618/2718 30007KT P6SM SCT025 BKN200
     FM262200 25007KT P6SM SCT030 BKN150
     FM270300 26006KT P6SM -SHRA SCT050 BKN250
     FM270600 29009KT P6SM SCT050 BKN100
     FM271400 31014G20KT P6SM -SHRA BKN015 OVC030=



000
FTUS43 KMPX 261700
TAFMSP
TAF
KMSP 261720Z 2618/2724 VRB04KT P6SM FEW025 SCT120 BKN250
     FM261900 24008KT P6SM SCT025 SCT120 BKN250
     FM270000 24007KT P6SM VCSH SCT050 BKN090
     FM270300 28010KT P6SM SCT050 BKN100
     FM271200 29012G18KT P6SM BKN020 OVC035
     FM271800 32015G25KT P6SM -SHRA SCT020 OVC035=



000
FTUS43 KMPX 261300 AAA
TAFMSP
TAF AMD
KMSP 261331Z 2614/2718 02004KT P6SM FEW120 BKN250
     FM261600 27007KT P6SM SCT120 BKN250
     FM270100 26006KT P6SM VCSH SCT060 BKN250
     FM270300 27009KT P6SM SCT050=



    US Dept of Commerce
    National Oceanic and Atmospheric Administration
    National Weather Service
    1325 East West Highway
    Silver Spring, MD 20910
    Page Author: NWS Internet Services Team
Disclaimer
Information Quality
Credits
Glossary
Privacy Policy
Freedom of Information Act (FOIA)
About Us
Career Opportunities